Time;durP1;ratioP1;P1;durP2;ratioP2;P2;SDS_P1;SDS_P2;PMS_P1;PMS_P2;Temp;Humidity;BMP_temperature;BMP_pressure;BME280_temperature;BME280_humidity;BME280_pressure;Samples;Min_cycle;Max_cycle;Signal;HPM_P1;HPM_P2
2022/04/10 00:00:51;;;;;;;6.18;1.10;;;;;;;;;;5151099;27;21118;-17
2022/04/10 00:03:19;;;;;;;4.60;1.17;;;;;;;;;;5151170;27;20245;-18
2022/04/10 00:05:47;;;;;;;2.55;1.27;;;;;;;;;;5152147;27;20716;-18
2022/04/10 00:08:14;;;;;;;3.03;1.10;;;;;;;;;;5154948;27;20235;-19
2022/04/10 00:10:42;;;;;;;3.45;1.17;;;;;;;;;;5149171;27;20257;-19
2022/04/10 00:13:11;;;;;;;4.55;1.65;;;;;;;;;;5151346;27;20237;-18
2022/04/10 00:15:38;;;;;;;3.97;1.40;;;;;;;;;;5152787;27;20300;-18
2022/04/10 00:18:06;;;;;;;2.67;1.20;;;;;;;;;;5150867;27;21336;-18
2022/04/10 00:20:33;;;;;;;3.67;1.20;;;;;;;;;;5151328;27;20269;-18
2022/04/10 00:23:00;;;;;;;4.05;1.50;;;;;;;;;;5149287;27;20234;-18
2022/04/10 00:25:28;;;;;;;3.85;1.48;;;;;;;;;;5148894;27;20278;-18
2022/04/10 00:27:55;;;;;;;6.72;1.50;;;;;;;;;;5155490;27;20701;-18
2022/04/10 00:30:24;;;;;;;3.15;1.30;;;;;;;;;;5152359;27;20234;-18
2022/04/10 00:32:52;;;;;;;2.35;1.13;;;;;;;;;;5152920;27;20230;-18
2022/04/10 00:35:19;;;;;;;2.75;1.38;;;;;;;;;;5161717;27;20219;-18
2022/04/10 00:37:47;;;;;;;7.47;1.52;;;;;;;;;;5166880;27;20431;-18
2022/04/10 00:40:14;;;;;;;8.20;1.25;;;;;;;;;;5166934;27;20309;-18
2022/04/10 00:42:43;;;;;;;7.57;2.00;;;;;;;;;;5169544;27;20306;-18
2022/04/10 00:45:10;;;;;;;15.52;2.15;;;;;;;;;;5159848;27;20230;-18
2022/04/10 00:47:39;;;;;;;8.43;1.77;;;;;;;;;;5163265;27;20700;-18
2022/04/10 00:50:07;;;;;;;7.55;1.70;;;;;;;;;;5167983;27;20230;-18
2022/04/10 00:52:34;;;;;;;10.68;1.73;;;;;;;;;;5166830;27;20226;-18
2022/04/10 00:55:01;;;;;;;10.35;1.80;;;;;;;;;;5164253;27;20224;-18
2022/04/10 00:57:29;;;;;;;8.65;2.03;;;;;;;;;;5164295;27;20232;-18
2022/04/10 00:59:56;;;;;;;5.40;1.73;;;;;;;;;;5167604;27;20223;-18
2022/04/10 01:02:24;;;;;;;6.20;1.65;;;;;;;;;;5166552;27;20250;-18
2022/04/10 01:04:52;;;;;;;7.13;1.58;;;;;;;;;;5167045;27;20313;-18
2022/04/10 01:07:20;;;;;;;5.35;1.60;;;;;;;;;;5161159;27;20222;-18
2022/04/10 01:09:47;;;;;;;3.90;1.05;;;;;;;;;;5161887;27;20231;-18
2022/04/10 01:12:14;;;;;;;5.13;1.50;;;;;;;;;;5164287;27;20248;-18
2022/04/10 01:14:42;;;;;;;5.75;1.48;;;;;;;;;;5166199;27;20226;-18
2022/04/10 01:17:09;;;;;;;5.88;1.67;;;;;;;;;;5160466;27;20237;-18
2022/04/10 01:19:37;;;;;;;3.83;1.70;;;;;;;;;;5166784;27;20230;-18
2022/04/10 01:22:06;;;;;;;3.95;1.70;;;;;;;;;;5164464;27;20245;-18
2022/04/10 01:24:36;;;;;;;2.45;1.45;;;;;;;;;;5166868;27;20730;-18
2022/04/10 01:27:03;;;;;;;5.28;1.30;;;;;;;;;;5165081;27;20229;-18
2022/04/10 01:29:31;;;;;;;7.50;1.85;;;;;;;;;;5165833;27;21035;-18
2022/04/10 01:31:58;;;;;;;3.03;1.40;;;;;;;;;;5168593;27;20763;-18
2022/04/10 01:34:26;;;;;;;23.23;1.80;;;;;;;;;;5165374;27;20878;-18
2022/04/10 01:36:53;;;;;;;3.20;1.67;;;;;;;;;;5166214;27;20237;-18
2022/04/10 01:39:21;;;;;;;4.22;1.40;;;;;;;;;;5163292;27;20227;-18
2022/04/10 01:41:50;;;;;;;4.60;1.77;;;;;;;;;;5167249;27;21121;-18
2022/04/10 01:44:18;;;;;;;3.17;1.20;;;;;;;;;;5167623;27;20734;-18
2022/04/10 01:46:45;;;;;;;3.58;1.33;;;;;;;;;;5166567;27;20218;-18
2022/04/10 01:49:12;;;;;;;3.70;1.30;;;;;;;;;;5163907;27;20272;-18
2022/04/10 01:51:40;;;;;;;5.40;1.88;;;;;;;;;;5165002;27;20269;-18
2022/04/10 01:54:07;;;;;;;3.50;1.63;;;;;;;;;;5164033;27;20222;-18
2022/04/10 01:56:35;;;;;;;5.97;1.90;;;;;;;;;;5164089;27;20219;-18
2022/04/10 01:59:03;;;;;;;5.93;1.67;;;;;;;;;;5166138;27;20990;-18
2022/04/10 02:01:31;;;;;;;5.40;1.38;;;;;;;;;;5164251;27;20978;-18
2022/04/10 02:03:59;;;;;;;3.00;1.40;;;;;;;;;;5165441;27;20319;-18
2022/04/10 02:06:26;;;;;;;5.30;1.70;;;;;;;;;;5164798;27;20723;-18
2022/04/10 02:08:53;;;;;;;2.78;1.38;;;;;;;;;;5165165;27;20233;-18
2022/04/10 02:11:21;;;;;;;2.65;1.17;;;;;;;;;;5161790;27;20237;-18
2022/04/10 02:13:48;;;;;;;2.25;1.17;;;;;;;;;;5166602;27;20226;-18
2022/04/10 02:16:17;;;;;;;5.47;1.48;;;;;;;;;;5165185;27;20234;-18
2022/04/10 02:18:46;;;;;;;3.17;1.30;;;;;;;;;;5166935;27;20237;-18
2022/04/10 02:21:13;;;;;;;4.63;1.75;;;;;;;;;;5160641;22;20247;-20
2022/04/10 02:23:40;;;;;;;2.85;1.33;;;;;;;;;;5099297;28;20267;-20
2022/04/10 02:26:09;;;;;;;3.33;1.27;;;;;;;;;;5103291;28;20240;-20
2022/04/10 02:28:36;;;;;;;3.58;1.42;;;;;;;;;;5104318;28;20232;-20
2022/04/10 02:31:03;;;;;;;5.32;1.38;;;;;;;;;;5104195;28;20235;-20
2022/04/10 02:33:33;;;;;;;2.72;1.35;;;;;;;;;;5102081;28;20232;-20
2022/04/10 02:36:00;;;;;;;2.50;1.33;;;;;;;;;;5100170;28;20237;-19
2022/04/10 02:38:27;;;;;;;3.08;1.15;;;;;;;;;;5104274;28;20712;-20
2022/04/10 02:40:55;;;;;;;3.17;1.20;;;;;;;;;;5096200;28;20224;-20
2022/04/10 02:43:23;;;;;;;3.95;1.30;;;;;;;;;;5103236;28;20224;-19
2022/04/10 02:45:50;;;;;;;3.42;1.27;;;;;;;;;;5099000;28;20724;-20
2022/04/10 02:48:17;;;;;;;5.13;1.63;;;;;;;;;;5101418;28;20233;-20
2022/04/10 02:50:46;;;;;;;2.53;1.38;;;;;;;;;;5104108;28;20228;-20
2022/04/10 02:53:13;;;;;;;4.47;1.50;;;;;;;;;;5100534;28;20233;-20
2022/04/10 02:55:40;;;;;;;3.20;1.52;;;;;;;;;;5094266;28;20239;-20
2022/04/10 02:58:08;;;;;;;2.60;1.27;;;;;;;;;;5104006;28;20255;-20
2022/04/10 03:00:36;;;;;;;2.70;1.20;;;;;;;;;;5103510;28;20224;-19
2022/04/10 03:03:03;;;;;;;3.78;1.40;;;;;;;;;;5101414;28;20628;-19
2022/04/10 03:05:30;;;;;;;4.85;1.42;;;;;;;;;;5104975;28;20238;-19
2022/04/10 03:07:59;;;;;;;4.20;1.40;;;;;;;;;;5104580;28;21025;-19
2022/04/10 03:10:26;;;;;;;3.60;1.40;;;;;;;;;;5102280;28;20234;-20
2022/04/10 03:12:54;;;;;;;3.40;1.13;;;;;;;;;;5101481;28;20690;-19
2022/04/10 03:15:21;;;;;;;3.22;1.33;;;;;;;;;;5101434;28;21119;-19
2022/04/10 03:17:48;;;;;;;2.63;1.40;;;;;;;;;;5101596;28;20239;-19
2022/04/10 03:20:16;;;;;;;2.42;1.08;;;;;;;;;;5100370;28;20631;-20
2022/04/10 03:22:43;;;;;;;2.67;1.23;;;;;;;;;;5080424;28;20245;-19
2022/04/10 03:25:12;;;;;;;2.65;1.10;;;;;;;;;;5075601;28;20238;-20
2022/04/10 03:27:39;;;;;;;3.53;1.50;;;;;;;;;;5083349;28;20251;-20
2022/04/10 03:30:08;;;;;;;3.08;1.10;;;;;;;;;;5080097;28;20229;-20
2022/04/10 03:32:35;;;;;;;4.05;1.23;;;;;;;;;;5079969;28;20222;-19
2022/04/10 03:35:02;;;;;;;2.83;1.27;;;;;;;;;;5082134;28;21069;-19
2022/04/10 03:37:30;;;;;;;3.80;1.50;;;;;;;;;;5080660;28;20239;-19
2022/04/10 03:39:57;;;;;;;3.35;1.13;;;;;;;;;;5081719;28;20229;-20
2022/04/10 03:42:26;;;;;;;3.35;1.05;;;;;;;;;;5081169;28;20229;-20
2022/04/10 03:44:53;;;;;;;2.33;1.00;;;;;;;;;;5078806;28;20245;-20
2022/04/10 03:47:21;;;;;;;3.00;1.08;;;;;;;;;;5080954;28;20217;-19
2022/04/10 03:49:50;;;;;;;5.68;1.33;;;;;;;;;;5078800;28;20228;-19
2022/04/10 03:52:17;;;;;;;5.53;1.80;;;;;;;;;;5082344;28;20236;-19
2022/04/10 03:54:45;;;;;;;2.85;1.05;;;;;;;;;;5082586;28;20235;-19
2022/04/10 03:57:12;;;;;;;4.68;1.30;;;;;;;;;;5079269;28;20229;-19
2022/04/10 03:59:41;;;;;;;2.83;1.17;;;;;;;;;;5076317;28;20229;-19
2022/04/10 04:02:08;;;;;;;2.92;1.10;;;;;;;;;;5081409;28;21153;-20
2022/04/10 04:04:36;;;;;;;3.65;1.40;;;;;;;;;;5076102;28;20232;-19
2022/04/10 04:07:04;;;;;;;4.60;2.00;;;;;;;;;;5076387;28;20230;-19
2022/04/10 04:09:31;;;;;;;2.67;1.20;;;;;;;;;;5077768;28;20229;-19
2022/04/10 04:11:58;;;;;;;4.53;1.35;;;;;;;;;;5078200;28;20213;-19
2022/04/10 04:14:26;;;;;;;1.48;0.98;;;;;;;;;;5079334;28;20229;-19
2022/04/10 04:16:54;;;;;;;3.13;1.15;;;;;;;;;;5076909;28;20822;-20
2022/04/10 04:19:22;;;;;;;2.33;1.10;;;;;;;;;;5081558;28;20225;-20
2022/04/10 04:21:49;;;;;;;5.28;1.52;;;;;;;;;;5079254;28;20379;-19
2022/04/10 04:24:16;;;;;;;2.97;1.20;;;;;;;;;;5083731;28;20225;-19
2022/04/10 04:26:44;;;;;;;3.67;1.10;;;;;;;;;;5082774;28;20222;-19
2022/04/10 04:29:11;;;;;;;2.63;1.20;;;;;;;;;;5082314;28;21042;-20
2022/04/10 04:31:38;;;;;;;2.65;1.40;;;;;;;;;;5082770;28;20226;-19
2022/04/10 04:34:09;;;;;;;2.55;0.90;;;;;;;;;;5085348;28;20244;-20
2022/04/10 04:36:37;;;;;;;3.13;1.20;;;;;;;;;;5085108;28;21479;-19
2022/04/10 04:39:04;;;;;;;2.63;1.20;;;;;;;;;;5086010;28;20232;-19
2022/04/10 04:41:31;;;;;;;3.63;1.50;;;;;;;;;;5087944;28;20233;-19
2022/04/10 04:43:58;;;;;;;3.63;1.13;;;;;;;;;;5084074;28;20229;-19
2022/04/10 04:46:26;;;;;;;2.05;0.90;;;;;;;;;;5082778;28;20324;-19
2022/04/10 04:48:53;;;;;;;3.47;1.20;;;;;;;;;;5082675;28;20338;-19
2022/04/10 04:51:22;;;;;;;2.75;1.23;;;;;;;;;;5083321;28;20688;-20
2022/04/10 04:53:49;;;;;;;2.25;1.27;;;;;;;;;;5084964;28;20225;-20
2022/04/10 04:56:17;;;;;;;2.60;0.80;;;;;;;;;;5081845;28;20325;-19
2022/04/10 04:58:44;;;;;;;1.75;0.90;;;;;;;;;;5081965;28;20238;-20
2022/04/10 05:01:11;;;;;;;1.98;0.80;;;;;;;;;;5077116;28;20240;-20
2022/04/10 05:03:39;;;;;;;3.88;1.08;;;;;;;;;;5082197;28;20225;-20
2022/04/10 05:06:10;;;;;;;4.13;1.00;;;;;;;;;;5076959;28;20691;-20
2022/04/10 05:08:40;;;;;;;1.38;0.75;;;;;;;;;;5080645;28;20233;-19
2022/04/10 05:11:09;;;;;;;2.95;0.90;;;;;;;;;;5085084;28;20225;-20
2022/04/10 05:13:36;;;;;;;2.05;0.90;;;;;;;;;;5082315;28;20308;-19
2022/04/10 05:16:03;;;;;;;1.83;0.98;;;;;;;;;;5087425;28;20224;-19
2022/04/10 05:18:34;;;;;;;2.67;0.90;;;;;;;;;;5083707;28;20256;-19
2022/04/10 05:21:02;;;;;;;2.90;0.90;;;;;;;;;;5082453;28;20715;-19
2022/04/10 05:23:29;;;;;;;2.40;1.00;;;;;;;;;;5083965;28;20233;-20
2022/04/10 05:25:58;;;;;;;2.35;1.10;;;;;;;;;;5082887;28;20232;-19
2022/04/10 05:28:25;;;;;;;3.47;1.10;;;;;;;;;;5081778;28;20241;-19
2022/04/10 05:30:53;;;;;;;1.73;0.80;;;;;;;;;;5081604;28;20229;-20
2022/04/10 05:33:21;;;;;;;2.40;1.10;;;;;;;;;;5084359;28;20228;-19
2022/04/10 05:35:48;;;;;;;1.17;0.70;;;;;;;;;;5081740;28;20238;-20
2022/04/10 05:38:16;;;;;;;1.55;0.70;;;;;;;;;;5084861;28;20221;-19
2022/04/10 05:40:43;;;;;;;1.95;0.80;;;;;;;;;;5080549;28;21053;-20
2022/04/10 05:43:12;;;;;;;2.45;0.90;;;;;;;;;;5077858;28;20233;-20
2022/04/10 05:45:39;;;;;;;3.20;1.17;;;;;;;;;;5081335;28;20241;-20
2022/04/10 05:48:06;;;;;;;2.00;1.10;;;;;;;;;;5081517;28;20237;-19
2022/04/10 05:50:34;;;;;;;2.05;0.80;;;;;;;;;;5088054;28;20225;-20
2022/04/10 05:53:02;;;;;;;2.38;1.10;;;;;;;;;;5081905;28;20243;-20
2022/04/10 05:55:29;;;;;;;1.98;1.30;;;;;;;;;;5081332;28;20233;-20
2022/04/10 05:57:57;;;;;;;1.02;0.52;;;;;;;;;;5083059;28;20214;-20
2022/04/10 06:00:25;;;;;;;2.35;0.88;;;;;;;;;;5083348;28;22047;-19
2022/04/10 06:02:53;;;;;;;2.20;0.98;;;;;;;;;;5086214;28;20233;-20
2022/04/10 06:05:20;;;;;;;2.58;0.82;;;;;;;;;;5077513;28;20260;-20
2022/04/10 06:07:47;;;;;;;1.38;0.77;;;;;;;;;;5081503;28;20238;-20
2022/04/10 06:10:15;;;;;;;2.03;1.00;;;;;;;;;;5084511;28;20224;-20
2022/04/10 06:12:42;;;;;;;3.40;1.27;;;;;;;;;;5084542;28;20236;-20
2022/04/10 06:15:10;;;;;;;2.75;1.10;;;;;;;;;;5076271;28;20281;-20
2022/04/10 06:17:39;;;;;;;5.22;0.90;;;;;;;;;;5084065;28;20232;-20
2022/04/10 06:20:07;;;;;;;2.00;0.95;;;;;;;;;;5081182;28;20225;-20
2022/04/10 06:22:34;;;;;;;3.00;1.00;;;;;;;;;;5083207;28;20716;-20
2022/04/10 06:25:01;;;;;;;1.50;0.90;;;;;;;;;;5081768;28;20248;-20
2022/04/10 06:27:29;;;;;;;2.80;1.25;;;;;;;;;;5074143;28;20230;-20
2022/04/10 06:29:56;;;;;;;2.28;1.05;;;;;;;;;;5078459;28;20237;-19
2022/04/10 06:32:23;;;;;;;2.17;0.93;;;;;;;;;;5074061;28;20229;-20
2022/04/10 06:34:52;;;;;;;2.10;0.80;;;;;;;;;;5071495;28;20233;-20
2022/04/10 06:37:19;;;;;;;1.75;0.70;;;;;;;;;;5077797;28;20596;-20
2022/04/10 06:39:47;;;;;;;2.33;1.15;;;;;;;;;;5079424;28;20228;-19
2022/04/10 06:42:14;;;;;;;2.33;0.95;;;;;;;;;;5081408;28;20249;-19
2022/04/10 06:44:41;;;;;;;4.65;1.00;;;;;;;;;;5075847;28;20585;-20
2022/04/10 06:47:09;;;;;;;2.40;1.02;;;;;;;;;;5080672;28;20227;-19
2022/04/10 06:49:36;;;;;;;2.30;1.20;;;;;;;;;;5081040;28;20994;-19
2022/04/10 06:52:05;;;;;;;2.67;1.00;;;;;;;;;;5081052;28;20237;-19
2022/04/10 06:54:32;;;;;;;6.50;1.13;;;;;;;;;;5082956;28;20615;-19
2022/04/10 06:57:00;;;;;;;4.15;0.90;;;;;;;;;;5076874;28;20234;-20
2022/04/10 06:59:27;;;;;;;4.35;1.10;;;;;;;;;;5079396;28;20228;-19
2022/04/10 07:01:54;;;;;;;2.90;1.10;;;;;;;;;;5075703;28;20236;-19
2022/04/10 07:04:22;;;;;;;4.90;1.02;;;;;;;;;;5075530;28;20264;-19
2022/04/10 07:06:50;;;;;;;4.15;1.05;;;;;;;;;;5073954;28;20324;-19
2022/04/10 07:09:19;;;;;;;1.98;1.17;;;;;;;;;;5074523;28;20229;-19
2022/04/10 07:11:46;;;;;;;11.98;1.52;;;;;;;;;;5072995;28;20233;-19
2022/04/10 07:14:14;;;;;;;2.85;1.00;;;;;;;;;;5073266;28;20241;-19
2022/04/10 07:16:41;;;;;;;4.95;0.93;;;;;;;;;;5073846;28;21005;-19
2022/04/10 07:19:08;;;;;;;5.32;1.20;;;;;;;;;;5073568;28;20234;-19
2022/04/10 07:24:22;;;;;;;4.03;1.60;;;;;;;;;;5073761;28;20236;-19
2022/04/10 07:26:52;;;;;;;4.90;1.40;;;;;;;;;;5072803;28;20233;-19
2022/04/10 07:29:19;;;;;;;3.88;1.05;;;;;;;;;;5074921;28;20257;-19
2022/04/10 07:31:47;;;;;;;5.13;0.95;;;;;;;;;;5073391;28;20233;-19
2022/04/10 07:34:14;;;;;;;4.80;1.27;;;;;;;;;;5074779;28;20328;-19
2022/04/10 07:36:41;;;;;;;3.67;1.30;;;;;;;;;;5075918;28;20229;-19
2022/04/10 07:39:09;;;;;;;5.95;1.13;;;;;;;;;;5084185;28;20346;-19
2022/04/10 07:41:37;;;;;;;4.38;1.45;;;;;;;;;;5081080;28;20240;-19
2022/04/10 07:44:05;;;;;;;3.90;1.20;;;;;;;;;;5083219;28;20232;-19
2022/04/10 07:49:18;;;;;;;4.28;1.20;;;;;;;;;;5082409;28;20259;-19
2022/04/10 07:51:45;;;;;;;3.42;1.05;;;;;;;;;;5079919;28;20237;-19
2022/04/10 07:54:12;;;;;;;5.25;1.15;;;;;;;;;;5078594;28;21072;-19
2022/04/10 07:56:43;;;;;;;3.65;1.00;;;;;;;;;;5075481;28;20225;-19
2022/04/10 07:59:10;;;;;;;5.18;1.05;;;;;;;;;;5078175;28;20214;-19
2022/04/10 08:01:38;;;;;;;4.82;1.00;;;;;;;;;;5082843;28;20236;-19
2022/04/10 08:04:05;;;;;;;6.07;1.15;;;;;;;;;;5083290;28;20225;-20
2022/04/10 08:06:33;;;;;;;7.95;1.15;;;;;;;;;;5080076;28;20236;-19
2022/04/10 08:09:00;;;;;;;8.02;1.10;;;;;;;;;;5082496;28;20225;-19
2022/04/10 08:11:28;;;;;;;4.38;0.75;;;;;;;;;;5081176;28;20239;-19
2022/04/10 08:13:56;;;;;;;7.28;1.17;;;;;;;;;;5080684;28;20425;-19
2022/04/10 08:16:24;;;;;;;6.88;1.40;;;;;;;;;;5076177;28;20477;-21
2022/04/10 08:18:52;;;;;;;18.15;1.50;;;;;;;;;;5073475;28;21176;-20
2022/04/10 08:21:20;;;;;;;10.20;1.27;;;;;;;;;;5070875;28;20417;-20
2022/04/10 08:23:47;;;;;;;7.17;1.20;;;;;;;;;;5068588;28;20926;-30
2022/04/10 08:26:14;;;;;;;6.07;1.38;;;;;;;;;;5070503;28;20252;-20
2022/04/10 08:28:42;;;;;;;6.70;1.20;;;;;;;;;;5070627;28;20238;-20
2022/04/10 08:31:10;;;;;;;8.50;1.20;;;;;;;;;;5073862;28;20233;-19
2022/04/10 08:33:38;;;;;;;3.35;1.10;;;;;;;;;;5073760;28;20303;-20
2022/04/10 08:36:05;;;;;;;5.70;0.80;;;;;;;;;;5072743;28;20232;-20
2022/04/10 08:38:33;;;;;;;6.10;1.37;;;;;;;;;;5072136;28;20416;-20
2022/04/10 08:41:00;;;;;;;2.22;0.77;;;;;;;;;;5077176;28;20237;-20
2022/04/10 08:43:28;;;;;;;3.33;0.95;;;;;;;;;;5077109;28;21102;-20
2022/04/10 08:45:55;;;;;;;4.75;0.90;;;;;;;;;;5077201;28;20233;-20
2022/04/10 08:48:26;;;;;;;7.05;0.80;;;;;;;;;;5075228;28;20236;-20
2022/04/10 08:50:54;;;;;;;3.83;0.80;;;;;;;;;;5074719;28;20265;-20
2022/04/10 08:53:22;;;;;;;9.13;1.10;;;;;;;;;;5074783;28;20903;-20
2022/04/10 08:55:49;;;;;;;9.05;1.40;;;;;;;;;;5070222;28;20448;-20
2022/04/10 08:58:17;;;;;;;4.22;0.80;;;;;;;;;;5077195;28;20234;-20
2022/04/10 09:00:44;;;;;;;5.90;0.93;;;;;;;;;;5074891;28;20802;-20
2022/04/10 09:03:11;;;;;;;3.95;0.80;;;;;;;;;;5070625;28;20221;-20
2022/04/10 09:05:41;;;;;;;8.98;1.00;;;;;;;;;;5077959;28;20267;-20
2022/04/10 09:08:12;;;;;;;9.77;0.82;;;;;;;;;;5074351;28;20326;-20
2022/04/10 09:10:55;;;;;;;5.45;0.70;;;;;;;;;;5079902;28;20719;-20
2022/04/10 09:13:27;;;;;;;8.07;0.93;;;;;;;;;;5073186;28;20421;-20
2022/04/10 09:16:01;;;;;;;3.55;0.90;;;;;;;;;;5072275;28;20241;-20
2022/04/10 09:18:28;;;;;;;5.63;0.90;;;;;;;;;;5077082;28;20229;-20
2022/04/10 09:21:07;;;;;;;5.40;1.00;;;;;;;;;;5075234;28;21029;-20
2022/04/10 09:23:35;;;;;;;7.78;0.90;;;;;;;;;;5071353;28;20221;-20
2022/04/10 09:26:02;;;;;;;2.55;0.82;;;;;;;;;;5070732;28;20233;-20
2022/04/10 09:28:42;;;;;;;6.03;1.05;;;;;;;;;;5073917;28;20249;-20
2022/04/10 09:31:26;;;;;;;4.65;0.75;;;;;;;;;;5067276;28;20261;-20
2022/04/10 09:33:53;;;;;;;6.10;1.00;;;;;;;;;;5069006;28;20420;-19
2022/04/10 09:36:41;;;;;;;5.05;0.57;;;;;;;;;;5075429;28;20244;-19
2022/04/10 09:39:09;;;;;;;6.25;1.10;;;;;;;;;;5075168;28;20921;-19
2022/04/10 09:41:36;;;;;;;6.97;1.00;;;;;;;;;;5081412;28;20229;-19
2022/04/10 09:44:14;;;;;;;3.78;0.70;;;;;;;;;;5082633;28;20233;-19
2022/04/10 09:46:41;;;;;;;6.88;0.80;;;;;;;;;;5078077;28;20274;-19
2022/04/10 09:49:11;;;;;;;6.55;0.88;;;;;;;;;;5080149;28;20780;-19
2022/04/10 09:51:45;;;;;;;5.28;0.93;;;;;;;;;;5084424;28;20233;-19
2022/04/10 09:54:12;;;;;;;5.38;1.08;;;;;;;;;;5075347;28;20217;-19
2022/04/10 09:56:40;;;;;;;7.97;0.80;;;;;;;;;;5076993;28;20237;-19
2022/04/10 09:59:07;;;;;;;4.32;0.80;;;;;;;;;;5083880;28;20221;-19
2022/04/10 10:01:34;;;;;;;3.47;0.80;;;;;;;;;;5079719;28;20257;-19
2022/04/10 10:04:02;;;;;;;2.97;0.70;;;;;;;;;;5082854;28;20583;-19
2022/04/10 10:06:29;;;;;;;3.95;0.90;;;;;;;;;;5080603;28;20612;-19
2022/04/10 10:08:58;;;;;;;3.38;0.50;;;;;;;;;;5080957;28;20245;-19
2022/04/10 10:11:26;;;;;;;3.15;0.70;;;;;;;;;;5081277;28;20217;-19
2022/04/10 10:13:53;;;;;;;7.25;0.85;;;;;;;;;;5081481;28;20239;-19
2022/04/10 10:16:20;;;;;;;6.88;0.90;;;;;;;;;;5081930;28;21050;-19
2022/04/10 10:18:48;;;;;;;5.93;0.70;;;;;;;;;;5081180;28;20243;-19
2022/04/10 10:21:15;;;;;;;4.15;0.73;;;;;;;;;;5066856;28;20245;-19
2022/04/10 10:23:47;;;;;;;3.17;0.52;;;;;;;;;;5071010;28;20244;-19
2022/04/10 10:26:19;;;;;;;1.92;0.55;;;;;;;;;;5068638;28;20229;-19
2022/04/10 10:29:11;;;;;;;4.18;0.60;;;;;;;;;;5081103;28;20245;-19
2022/04/10 10:31:48;;;;;;;4.05;0.80;;;;;;;;;;5061811;28;20328;-19
2022/04/10 10:34:16;;;;;;;3.55;0.60;;;;;;;;;;5075810;28;20249;-19
2022/04/10 10:36:43;;;;;;;2.17;0.52;;;;;;;;;;5079372;28;20308;-19
2022/04/10 10:39:10;;;;;;;4.97;0.90;;;;;;;;;;5075850;28;20229;-19
2022/04/10 10:41:40;;;;;;;3.50;0.50;;;;;;;;;;5083674;28;20237;-19
2022/04/10 10:44:18;;;;;;;14.27;1.88;;;;;;;;;;5080628;28;20226;-19
2022/04/10 10:47:00;;;;;;;4.00;1.10;;;;;;;;;;5073396;28;20229;-19
2022/04/10 10:49:28;;;;;;;5.85;0.90;;;;;;;;;;5077614;28;20247;-19
2022/04/10 10:52:06;;;;;;;5.35;0.95;;;;;;;;;;5083033;28;20221;-19
2022/04/10 10:54:35;;;;;;;5.90;0.93;;;;;;;;;;5081082;28;20232;-19
2022/04/10 10:57:17;;;;;;;5.13;0.82;;;;;;;;;;5079872;28;20244;-19
2022/04/10 10:59:45;;;;;;;4.22;0.75;;;;;;;;;;5074901;28;20229;-19
2022/04/10 11:02:13;;;;;;;4.80;0.85;;;;;;;;;;5077119;28;20244;-19
2022/04/10 11:05:01;;;;;;;5.28;0.80;;;;;;;;;;5081022;28;20230;-19
2022/04/10 11:07:28;;;;;;;3.25;0.60;;;;;;;;;;5081770;28;20708;-19
2022/04/10 11:09:58;;;;;;;2.40;0.70;;;;;;;;;;5081788;28;20222;-19
2022/04/10 11:12:31;;;;;;;2.70;0.40;;;;;;;;;;5079595;28;20229;-19
2022/04/10 11:15:01;;;;;;;5.78;0.82;;;;;;;;;;5081427;28;20271;-19
2022/04/10 11:17:29;;;;;;;13.68;1.60;;;;;;;;;;5079931;28;20416;-19
2022/04/10 11:19:57;;;;;;;6.88;0.90;;;;;;;;;;5081719;28;21011;-19
2022/04/10 11:22:25;;;;;;;5.20;0.80;;;;;;;;;;5079975;28;20281;-19
2022/04/10 11:24:52;;;;;;;4.25;0.80;;;;;;;;;;5083294;28;20236;-19
2022/04/10 11:27:38;;;;;;;3.67;1.00;;;;;;;;;;5082759;28;20228;-19
2022/04/10 11:30:07;;;;;;;7.07;0.80;;;;;;;;;;5082414;28;20225;-19
2022/04/10 11:32:40;;;;;;;4.30;0.90;;;;;;;;;;5082244;28;20236;-19
2022/04/10 11:35:13;;;;;;;6.20;1.15;;;;;;;;;;5080167;28;20217;-19
2022/04/10 11:37:40;;;;;;;3.10;0.80;;;;;;;;;;5075896;28;20222;-19
2022/04/10 11:40:08;;;;;;;3.40;0.82;;;;;;;;;;5082360;28;20221;-19
2022/04/10 11:42:36;;;;;;;4.72;0.95;;;;;;;;;;5080167;28;20222;-19
2022/04/10 11:45:04;;;;;;;2.60;0.82;;;;;;;;;;5077675;28;20229;-19
2022/04/10 11:47:32;;;;;;;2.17;0.57;;;;;;;;;;5079444;28;20233;-19
2022/04/10 11:50:00;;;;;;;3.42;0.70;;;;;;;;;;5081554;28;20236;-19
2022/04/10 11:52:27;;;;;;;2.83;0.80;;;;;;;;;;5083132;28;20259;-19
2022/04/10 11:54:54;;;;;;;2.60;0.75;;;;;;;;;;5081350;28;20236;-19
2022/04/10 11:57:22;;;;;;;1.73;0.60;;;;;;;;;;5080484;28;20237;-19
2022/04/10 11:59:49;;;;;;;3.08;0.68;;;;;;;;;;5082407;28;20669;-19
2022/04/10 12:02:16;;;;;;;4.50;0.75;;;;;;;;;;5072566;28;20228;-19
2022/04/10 12:04:49;;;;;;;6.80;1.10;;;;;;;;;;5080795;28;20503;-19
2022/04/10 12:07:17;;;;;;;6.63;1.00;;;;;;;;;;5081529;28;20490;-19
2022/04/10 12:09:44;;;;;;;8.27;0.98;;;;;;;;;;5081525;28;20236;-19
2022/04/10 12:12:12;;;;;;;8.68;1.05;;;;;;;;;;5079586;28;20238;-19
2022/04/10 12:14:39;;;;;;;4.03;0.82;;;;;;;;;;5081325;28;20224;-19
2022/04/10 12:17:10;;;;;;;2.53;0.80;;;;;;;;;;5077018;28;20232;-19
2022/04/10 12:19:37;;;;;;;5.53;1.30;;;;;;;;;;5083375;28;20229;-19
2022/04/10 12:22:07;;;;;;;4.50;0.90;;;;;;;;;;5081970;28;20968;-19
2022/04/10 12:24:44;;;;;;;6.35;0.98;;;;;;;;;;5068169;28;20235;-19
2022/04/10 12:27:11;;;;;;;4.47;0.98;;;;;;;;;;5075654;28;20225;-19
2022/04/10 12:29:39;;;;;;;2.85;0.50;;;;;;;;;;5078489;28;20241;-19
2022/04/10 12:32:06;;;;;;;5.50;1.00;;;;;;;;;;5082674;28;20222;-19
2022/04/10 12:34:34;;;;;;;5.75;0.82;;;;;;;;;;5082455;28;20692;-18
2022/04/10 12:37:09;;;;;;;4.28;0.90;;;;;;;;;;5079204;28;20226;-18
2022/04/10 12:39:37;;;;;;;2.20;0.80;;;;;;;;;;5081455;28;20247;-19
2022/04/10 12:42:07;;;;;;;5.47;1.15;;;;;;;;;;5079778;28;20798;-18
2022/04/10 12:44:34;;;;;;;2.30;0.82;;;;;;;;;;5084592;28;20230;-18
2022/04/10 12:47:02;;;;;;;6.20;0.98;;;;;;;;;;5085276;28;20239;-18
2022/04/10 12:49:30;;;;;;;2.20;0.82;;;;;;;;;;5083552;28;20244;-19
2022/04/10 12:51:59;;;;;;;2.17;0.80;;;;;;;;;;5084266;28;20232;-19
2022/04/10 12:54:36;;;;;;;3.28;0.60;;;;;;;;;;5084010;28;21005;-18
2022/04/10 12:57:04;;;;;;;4.50;0.90;;;;;;;;;;5084843;28;20221;-19
2022/04/10 12:59:35;;;;;;;2.63;0.65;;;;;;;;;;5085371;28;20233;-18
2022/04/10 13:02:03;;;;;;;4.60;0.60;;;;;;;;;;5083523;28;20237;-18
2022/04/10 13:04:30;;;;;;;6.15;0.90;;;;;;;;;;5085180;28;20226;-18
2022/04/10 13:06:58;;;;;;;2.75;0.77;;;;;;;;;;5084755;28;20220;-19
2022/04/10 13:09:26;;;;;;;2.33;0.55;;;;;;;;;;5084145;28;20241;-19
2022/04/10 13:11:54;;;;;;;2.90;0.50;;;;;;;;;;5079024;28;20229;-18
2022/04/10 13:14:22;;;;;;;3.05;0.77;;;;;;;;;;5082820;28;20240;-19
2022/04/10 13:16:50;;;;;;;3.63;0.63;;;;;;;;;;5081909;28;21432;-19
2022/04/10 13:19:18;;;;;;;2.50;0.80;;;;;;;;;;5085175;28;20615;-19
2022/04/10 13:21:45;;;;;;;18.95;1.48;;;;;;;;;;5083136;28;20240;-19
2022/04/10 13:24:13;;;;;;;5.45;0.52;;;;;;;;;;5081502;28;21067;-19
2022/04/10 13:26:41;;;;;;;6.93;1.00;;;;;;;;;;5073497;28;20217;-19
2022/04/10 13:29:10;;;;;;;6.47;0.80;;;;;;;;;;5086019;28;20244;-19
2022/04/10 13:31:38;;;;;;;7.57;0.80;;;;;;;;;;5085217;28;20233;-19
2022/04/10 13:34:05;;;;;;;2.35;0.60;;;;;;;;;;5088791;28;20233;-19
2022/04/10 13:36:36;;;;;;;5.05;0.90;;;;;;;;;;5082921;28;20311;-19
2022/04/10 13:39:03;;;;;;;6.15;0.60;;;;;;;;;;5084966;28;20244;-19
2022/04/10 13:41:30;;;;;;;3.13;0.45;;;;;;;;;;5085794;28;20229;-19
2022/04/10 13:43:59;;;;;;;4.43;0.68;;;;;;;;;;5083758;28;20212;-19
2022/04/10 13:46:27;;;;;;;3.85;0.80;;;;;;;;;;5080954;28;21045;-19
2022/04/10 13:48:55;;;;;;;3.80;0.82;;;;;;;;;;5081396;28;20300;-19
2022/04/10 13:51:22;;;;;;;2.50;0.70;;;;;;;;;;5082250;28;20244;-19
2022/04/10 13:53:50;;;;;;;3.83;0.70;;;;;;;;;;5083847;28;20983;-19
2022/04/10 13:56:17;;;;;;;2.38;0.60;;;;;;;;;;5084336;28;20228;-19
2022/04/10 13:58:44;;;;;;;1.92;0.60;;;;;;;;;;5081383;28;20724;-19
2022/04/10 14:01:12;;;;;;;1.30;0.43;;;;;;;;;;5076743;28;20232;-19
2022/04/10 14:03:40;;;;;;;2.33;0.40;;;;;;;;;;5077313;28;20673;-19
2022/04/10 14:06:08;;;;;;;1.88;0.65;;;;;;;;;;5084296;28;20240;-19
2022/04/10 14:08:35;;;;;;;2.13;0.43;;;;;;;;;;5083505;28;20225;-19
2022/04/10 14:11:19;;;;;;;2.85;0.40;;;;;;;;;;5079090;28;20225;-19
2022/04/10 14:13:47;;;;;;;1.70;0.45;;;;;;;;;;5084252;28;20276;-19
2022/04/10 14:16:14;;;;;;;1.55;0.65;;;;;;;;;;5077511;28;20217;-19
2022/04/10 14:18:43;;;;;;;2.97;0.70;;;;;;;;;;5080226;28;20240;-19
2022/04/10 14:21:10;;;;;;;1.15;0.40;;;;;;;;;;5076278;28;20372;-19
2022/04/10 14:23:38;;;;;;;1.98;0.60;;;;;;;;;;5080913;28;20602;-19
2022/04/10 14:26:05;;;;;;;2.08;0.60;;;;;;;;;;5085250;28;20229;-19
2022/04/10 14:28:33;;;;;;;0.98;0.50;;;;;;;;;;5083253;28;20238;-19
2022/04/10 14:31:00;;;;;;;0.88;0.52;;;;;;;;;;5077455;28;20770;-19
2022/04/10 14:33:29;;;;;;;1.05;0.30;;;;;;;;;;5081784;28;20229;-19
2022/04/10 14:35:57;;;;;;;1.75;0.40;;;;;;;;;;5082255;28;21020;-19
2022/04/10 14:38:25;;;;;;;1.35;0.55;;;;;;;;;;5081918;28;20238;-19
2022/04/10 14:40:52;;;;;;;0.80;0.30;;;;;;;;;;5083536;28;20263;-19
2022/04/10 14:43:20;;;;;;;1.45;0.40;;;;;;;;;;5080097;28;20314;-19
2022/04/10 14:45:47;;;;;;;1.67;0.40;;;;;;;;;;5077152;28;20236;-19
2022/04/10 14:48:15;;;;;;;2.13;0.50;;;;;;;;;;5079840;28;20237;-19
2022/04/10 14:50:42;;;;;;;1.45;0.40;;;;;;;;;;5081935;28;20275;-19
2022/04/10 14:53:11;;;;;;;2.25;0.38;;;;;;;;;;5083544;28;20252;-19
2022/04/10 14:55:38;;;;;;;1.58;0.60;;;;;;;;;;5078147;28;20225;-19